Date,TemperatureHighF,TemperatureAvgF,TemperatureLowF,DewpointHighF,DewpointAvgF,DewpointLowF,HumidityHigh,HumidityAvg,HumidityLow,PressureMaxIn,PressureMinIn,WindSpeedMaxMPH,WindSpeedAvgMPH,GustSpeedMaxMPH,PrecipitationSumIn
2013-1-1,32.9,23.8,19.0,21.3,16.5,11.7,90,74,50,30.32,30.16,17,6,0,0.01
2013-1-2,26.7,22.9,20.8,17.3,6.9,-1.1,86,51,34,30.45,30.29,22,9,0,0.00
2013-1-3,42.7,26.3,15.2,15.3,2.9,-7.8,51,38,12,30.44,30.27,5,1,0,0.00
2013-1-4,47.2,32.7,24.6,11.3,7.7,0.7,52,36,16,30.27,30.11,12,3,0,0.00
2013-1-5,35.0,28.4,19.1,17.9,12.7,-0.3,71,52,38,30.29,30.15,12,4,0,0.00
2013-1-6,49.5,35.2,21.7,18.8,9.4,-10.6,59,36,8,30.21,29.90,6,1,0,0.00
2013-1-7,40.9,30.4,23.3,19.3,15.0,11.4,64,53,33,29.97,29.73,6,1,0,0.00
2013-1-8,40.9,34.9,22.4,19.4,13.9,10.4,68,43,29,30.07,29.75,14,4,0,0.00
2013-1-9,57.0,43.2,22.8,28.5,17.6,11.0,66,37,18,30.07,29.69,11,2,0,0.00
2013-1-10,50.6,35.0,15.7,21.5,16.4,10.4,91,50,28,29.69,29.42,10,2,0,0.00
2013-1-11,15.0,4.0,-0.7,11.8,-0.0,-4.8,87,83,80,30.27,29.54,26,11,0,0.00
2013-1-12,7.2,3.8,-0.7,2.9,-0.4,-4.6,85,82,80,30.43,30.27,13,3,0,0.00
2013-1-13,8.7,6.5,5.4,1.5,0.9,0.1,81,78,70,30.43,30.40,11,6,0,0.00
2013-1-15,39.3,34.3,25.9,29.7,26.2,21.3,86,73,48,30.27,30.13,19,7,0,0.01
2013-1-16,44.0,37.6,26.4,21.6,16.0,11.0,76,43,26,30.32,30.09,16,5,0,0.00
2013-1-17,48.2,34.5,24.5,22.9,15.3,4.0,69,48,16,30.39,30.09,10,2,0,0.00
2013-1-18,53.4,49.1,43.2,12.6,5.4,2.1,26,17,12,30.09,29.82,19,7,0,0.00
2013-1-19,44.4,36.8,24.3,19.5,10.3,-0.3,72,37,16,30.12,29.88,15,4,0,0.00
2013-1-20,43.1,21.9,14.6,16.6,12.7,1.3,91,74,17,30.42,30.07,21,5,0,0.00
2013-1-21,40.3,25.5,13.8,19.1,14.2,8.8,91,65,33,30.38,30.13,8,1,0,0.00
2013-1-22,44.0,33.5,26.1,15.2,7.9,-0.2,49,35,16,30.17,30.09,8,2,0,0.00
2013-1-23,49.8,34.0,28.4,19.8,12.6,0.8,61,42,13,30.19,29.98,7,1,0,0.00
2013-1-24,54.1,43.5,25.6,23.2,16.0,-1.3,77,37,11,30.04,29.84,12,3,0,0.00
2013-1-25,46.4,34.1,24.9,21.5,18.0,13.9,78,53,31,30.12,29.96,5,1,0,0.00
2013-1-26,49.6,39.9,32.1,24.7,22.3,18.7,63,50,34,29.96,29.66,8,2,0,0.00
2013-1-27,39.0,31.0,25.0,28.4,24.6,21.1,91,78,52,29.82,29.61,22,3,0,0.01
2013-1-28,25.3,20.8,12.9,22.8,16.8,9.5,90,84,64,29.91,29.81,10,2,0,0.00
2013-1-29,21.1,11.9,-3.2,15.6,6.3,-7.0,87,78,58,30.26,29.86,21,5,0,0.00
2013-1-30,26.7,18.8,-1.0,24.6,15.7,-4.4,93,88,72,30.20,30.04,16,5,0,0.01
2013-1-31,27.3,18.5,2.3,25.8,16.3,-1.2,94,91,85,30.32,30.12,14,4,0,0.00
2013-2-1,31.5,29.1,24.8,30.0,26.7,22.3,95,91,76,30.29,30.14,15,4,0,0.00
2013-2-2,36.3,28.6,18.8,23.0,18.7,15.2,86,67,48,30.39,30.28,18,4,0,0.00
2013-2-3,51.2,33.8,22.5,19.0,15.0,6.6,81,51,16,30.27,29.96,11,3,0,0.00
2013-2-4,42.9,32.5,22.5,22.4,17.7,14.9,73,56,34,29.97,29.86,11,2,0,0.00
2013-2-5,38.9,32.7,25.2,26.3,21.9,19.5,80,64,54,29.98,29.80,11,2,0,0.00
2013-2-6,37.4,32.9,25.2,25.2,18.7,11.6,81,56,41,30.12,29.80,13,4,0,0.00
2013-2-7,36.8,29.5,21.2,21.4,12.8,5.1,62,50,34,30.15,29.95,5,1,0,0.00
2013-2-8,40.1,30.7,23.5,17.4,10.4,3.9,68,44,25,29.99,29.88,6,1,0,0.00
2013-2-9,32.8,26.8,23.0,22.7,18.9,14.4,89,72,54,29.92,29.80,10,2,0,0.01
2013-2-10,23.1,17.0,11.4,20.3,14.5,8.3,92,89,87,30.25,29.88,26,10,0,0.00
2013-2-11,25.4,14.0,2.4,17.7,9.8,-1.1,90,83,72,30.28,30.18,10,1,0,0.00
2013-2-12,35.5,26.5,16.6,20.7,16.5,11.5,81,66,44,30.23,30.01,11,2,0,0.00
2013-2-13,42.3,32.2,22.4,26.6,20.0,14.6,93,65,34,30.06,29.88,22,5,0,0.01
2013-2-14,26.1,20.5,18.4,23.8,13.1,6.2,92,74,53,30.46,30.07,18,5,0,0.02
2013-2-15,38.8,25.3,19.6,23.5,18.9,15.8,90,77,52,30.52,30.25,20,5,0,0.01
2013-2-16,46.5,37.4,26.7,24.6,21.4,16.4,78,53,36,30.25,29.76,15,3,0,0.00
2013-2-17,38.4,27.8,22.9,25.8,20.3,11.9,93,75,34,29.98,29.62,19,7,0,0.01
2013-2-19,29.1,23.1,19.5,27.1,21.0,17.3,93,91,91,29.96,29.91,2,0,0,0.00
2013-2-20,26.1,19.8,14.3,22.8,17.0,11.7,91,89,84,29.99,29.86,8,1,0,0.00
2013-2-21,24.0,16.7,7.1,19.4,13.5,4.1,91,87,81,30.10,29.99,11,2,0,0.00
2013-2-22,31.2,20.9,11.4,15.3,11.0,6.7,85,66,42,30.11,29.85,11,2,0,0.00
2013-2-23,35.4,27.8,19.1,27.2,19.8,9.9,92,73,44,29.98,29.73,16,4,0,0.01
2013-2-24,26.1,20.5,12.1,20.6,16.1,8.5,92,83,62,30.24,29.99,17,6,0,0.01
2013-2-25,37.5,26.8,14.6,22.2,13.4,5.9,84,59,27,30.20,29.90,11,3,0,0.00
2013-2-26,29.2,26.1,20.1,23.0,17.2,13.0,89,70,52,30.28,29.94,20,7,0,0.01
2013-2-27,31.4,24.6,15.2,13.8,10.3,6.2,82,55,34,30.36,30.29,6,2,0,0.00
2013-2-28,34.4,29.8,20.3,17.0,13.2,8.9,63,50,38,30.34,30.27,12,4,0,0.00
2013-3-1,46.9,36.1,21.3,33.8,22.3,11.4,84,58,40,30.38,30.24,12,4,0,0.00
2013-3-2,53.2,45.7,36.9,26.4,23.0,19.5,62,42,27,30.25,29.80,12,3,0,0.00
2013-3-3,52.2,36.2,22.4,29.1,24.2,15.9,92,64,31,29.80,29.48,27,5,0,0.01
2013-3-4,23.5,15.9,10.3,15.7,9.8,4.0,87,77,63,30.51,29.78,33,9,0,0.00
2013-3-5,29.7,17.1,3.5,16.2,6.4,-0.2,86,65,43,30.53,30.23,7,2,0,0.00
2013-3-6,45.9,33.1,18.5,25.8,16.9,7.2,70,53,23,30.23,29.76,5,1,0,0.00
2013-3-7,42.8,34.6,27.8,23.6,19.1,8.8,74,55,26,30.08,29.81,7,1,0,0.00
2013-3-8,34.9,30.2,24.6,26.4,22.1,19.1,80,72,63,30.05,29.89,10,2,0,0.00
2013-3-9,33.2,30.2,26.3,26.3,21.2,15.6,85,69,60,30.25,29.89,19,8,0,0.00
2013-3-10,42.7,34.8,26.8,21.8,15.7,10.5,65,46,29,30.28,29.99,13,4,0,0.00
2013-3-11,38.1,28.8,19.9,27.8,22.7,14.2,93,79,37,30.30,29.97,16,6,0,0.02
2013-3-12,36.0,25.2,11.3,26.2,16.9,7.7,86,72,48,30.41,30.22,9,3,0,0.00
2013-3-13,56.6,47.6,32.7,28.7,25.0,21.9,77,42,30,30.21,30.06,11,3,0,0.00
2013-3-14,56.8,45.9,36.9,29.5,26.6,24.0,64,48,30,30.12,29.93,7,1,0,0.00
2013-3-15,55.7,47.5,35.1,28.1,23.5,17.1,71,42,22,29.95,29.81,13,4,0,0.00
2013-3-16,43.3,35.8,29.9,32.3,27.4,22.1,91,73,45,29.95,29.72,9,1,0,0.00
2013-3-17,44.8,28.4,19.7,23.9,19.2,6.1,91,70,38,29.88,29.37,9,3,0,0.01
2013-3-18,32.1,22.6,12.1,19.4,12.8,-0.7,90,68,24,30.10,29.89,12,3,0,0.00
2013-3-19,24.7,21.0,12.0,20.3,15.7,9.0,88,80,67,30.45,30.08,16,3,0,0.01
2013-3-20,46.8,29.7,12.3,25.9,16.9,9.2,89,62,26,30.42,29.73,4,1,0,0.00
2013-3-21,43.8,29.2,23.3,27.8,23.6,18.1,93,81,48,29.92,29.58,26,6,0,0.01
2013-3-22,26.6,21.2,13.8,18.0,13.8,9.9,89,73,55,30.22,29.91,14,5,0,0.00
2013-3-23,18.0,14.3,9.9,10.5,7.6,3.9,86,74,61,30.45,30.22,12,4,0,0.00
2013-3-24,16.0,13.0,5.3,10.8,5.7,-1.2,85,73,50,30.51,30.37,17,6,0,0.00
2013-3-25,32.8,19.8,4.4,14.6,7.2,0.9,86,60,34,30.51,30.24,8,2,0,0.00
2013-3-26,42.6,30.4,18.8,17.5,7.2,-1.6,59,39,17,30.23,30.06,6,1,0,0.00
2013-3-27,48.8,36.8,24.7,25.6,17.3,9.5,64,47,29,30.11,30.01,9,2,0,0.00
2013-3-28,52.3,41.2,31.0,26.7,22.3,18.5,66,48,31,30.09,30.03,4,1,0,0.00
2013-3-29,51.4,43.8,36.3,35.0,27.3,20.2,91,54,32,30.11,29.99,13,4,0,0.01
2013-3-30,46.1,39.2,31.2,33.2,27.7,20.7,90,66,38,30.15,30.05,16,4,0,0.00
2013-3-31,50.7,39.6,28.3,26.6,22.6,17.2,76,52,32,30.15,29.99,20,4,0,0.00
2013-4-1,48.3,37.5,28.9,25.1,20.4,8.0,77,53,20,30.14,30.09,9,1,0,0.00
2013-4-2,55.9,42.1,27.9,24.6,20.2,17.3,68,44,23,30.12,29.94,10,2,0,0.00
2013-4-3,55.1,46.3,35.1,28.8,23.8,16.8,74,43,28,30.08,29.91,14,3,0,0.00
2013-4-4,56.4,45.2,31.5,33.6,29.6,25.1,79,56,37,30.05,29.81,9,1,0,0.00
2013-4-5,55.8,47.2,41.3,42.7,32.2,26.1,85,57,41,29.80,29.57,6,1,0,0.02
2013-4-6,51.6,45.5,36.4,35.5,29.9,24.8,75,55,42,29.81,29.72,14,3,0,0.00
2013-4-7,47.3,39.6,33.4,35.3,31.6,29.4,85,74,60,29.74,29.59,10,2,0,0.00
2013-4-11,42.0,37.2,32.7,32.9,29.8,28.1,86,75,59,29.91,29.88,22,6,0,0.01
2013-4-12,35.1,31.4,28.7,28.9,28.2,26.9,94,88,77,29.95,29.88,16,5,0,0.00
2013-4-14,19.9,18.6,17.2,17.2,16.1,14.8,91,90,88,29.95,29.93,11,7,0,0.01
2013-4-15,20.7,17.1,13.0,14.7,12.6,10.3,91,82,73,30.31,29.94,11,4,0,0.00
2013-4-16,22.8,18.4,13.7,18.1,13.8,9.1,85,82,74,30.41,30.24,8,2,0,0.01
2013-4-17,21.7,18.0,15.2,16.3,13.7,11.7,89,83,73,30.45,30.36,12,4,0,0.00
2013-4-18,37.2,27.5,12.8,23.1,13.5,6.2,81,57,40,30.42,30.17,17,5,0,0.00
2013-4-19,44.5,38.4,31.2,29.2,23.1,18.6,77,55,43,30.18,29.81,16,3,0,0.00
2013-4-20,48.7,40.6,30.9,35.3,29.6,24.6,92,66,45,29.93,29.81,11,3,0,0.00
2013-4-21,41.5,32.0,23.3,32.4,28.0,21.1,92,85,57,30.18,29.93,14,3,0,0.01
2013-4-22,23.2,18.9,9.6,21.2,14.3,6.0,92,82,68,30.57,30.18,14,2,0,0.00
2013-4-23,31.5,22.3,6.8,18.5,10.3,3.0,86,62,42,30.55,30.31,10,3,0,0.00
2013-4-24,42.5,29.2,24.4,29.5,23.2,15.7,93,79,40,30.31,30.06,12,4,0,0.01
2013-4-25,56.3,47.6,37.7,25.9,17.1,8.9,54,31,15,30.06,29.82,13,4,0,0.00
2013-4-26,61.7,47.9,35.7,31.7,25.3,20.4,60,43,26,30.11,29.93,7,1,0,0.00
2013-4-27,67.7,54.9,39.9,31.2,24.3,11.3,55,34,12,30.06,29.73,10,2,0,0.00
2013-4-28,60.5,48.8,39.1,40.7,31.8,21.6,89,56,23,29.84,29.70,12,4,0,0.01
2013-4-29,65.0,48.2,32.0,39.8,31.5,23.0,93,59,20,29.67,29.40,19,5,0,0.01
2013-4-30,33.4,30.2,28.2,28.6,24.5,20.6,87,79,70,29.79,29.65,6,1,0,0.00
2013-5-1,36.5,30.9,22.9,23.2,19.1,13.6,89,63,39,30.70,30.44,5,1,0,0.00
2013-5-2,49.9,37.4,22.9,26.6,19.7,14.9,80,51,30,30.72,30.36,7,2,0,0.00
2013-5-3,58.9,47.1,32.9,32.2,22.5,15.2,67,41,19,30.36,30.07,6,2,0,0.00
2013-5-4,48.3,42.7,38.1,41.1,36.0,32.0,92,78,63,30.22,30.09,6,1,0,0.01
2013-5-5,56.2,45.7,32.5,34.6,28.4,24.4,89,55,32,30.21,30.02,8,2,0,0.00
2013-5-6,63.5,51.7,37.9,33.3,28.8,24.8,67,44,27,30.02,29.83,9,2,0,0.00
2013-5-7,68.9,58.2,43.3,36.2,29.3,25.4,54,35,21,29.83,29.70,9,2,0,0.00
2013-5-8,60.8,52.9,45.2,38.5,33.5,28.7,64,48,31,30.03,29.80,13,3,0,0.00
2013-5-9,65.7,54.8,40.9,42.2,34.1,28.2,72,48,27,30.03,29.96,8,2,0,0.00
2013-5-10,66.0,52.3,40.9,46.0,34.8,29.4,77,53,27,30.29,30.01,10,2,0,0.01
2013-5-11,63.3,49.9,33.5,39.8,32.7,27.2,81,54,33,30.30,30.07,9,1,0,0.00
2013-5-12,74.7,66.0,50.2,41.5,36.3,31.3,56,34,24,30.10,29.78,10,3,0,0.00
2013-5-13,82.3,71.6,57.9,44.2,35.7,26.9,45,28,14,29.80,29.51,8,3,0,0.00
2013-5-14,71.6,62.1,52.7,48.5,43.3,34.7,69,51,39,29.75,29.52,15,2,0,0.00
2013-5-15,66.6,56.7,43.3,44.8,37.8,31.6,72,51,34,29.82,29.68,8,2,0,0.00
2013-5-16,64.6,54.8,46.6,51.9,44.2,37.9,91,69,46,29.72,29.61,13,2,0,0.01
2013-5-17,56.8,50.3,44.6,51.3,47.0,43.3,96,89,76,29.78,29.64,12,1,0,0.05
2013-5-18,55.6,48.1,40.5,50.2,45.0,38.7,95,89,77,29.83,29.76,11,2,0,0.01
2013-5-19,47.0,45.9,44.0,44.8,43.6,42.1,96,92,86,29.90,29.76,18,6,0,0.02
2013-5-20,49.5,43.8,38.2,42.6,38.8,30.2,95,84,50,30.08,29.87,22,9,0,0.02
2013-5-21,55.8,48.1,39.5,39.0,35.5,28.6,91,64,38,30.07,29.89,16,4,0,0.00
2013-5-22,56.6,47.2,35.8,46.2,41.1,33.4,94,80,58,29.91,29.85,11,3,0,0.00
2013-5-23,62.1,52.2,42.7,47.9,44.2,39.3,90,75,59,29.88,29.62,15,5,0,0.00
2013-5-24,64.5,53.8,45.2,47.8,45.4,42.5,93,74,48,29.85,29.63,10,1,0,0.00
2013-5-25,74.9,59.7,42.5,49.5,39.6,26.6,85,51,19,29.83,29.62,20,3,0,0.00
2013-5-26,67.7,54.3,45.9,54.8,44.9,34.5,96,73,43,29.77,29.64,12,2,0,0.16
2013-5-27,62.0,51.4,42.3,51.4,43.5,33.0,95,76,39,29.77,29.63,14,0,0,0.09
2013-5-28,65.1,51.2,40.1,47.4,41.0,35.6,92,71,40,29.70,29.54,1,0,0,0.07
2013-5-29,54.9,47.5,44.1,48.5,45.1,42.8,96,92,77,29.62,29.47,6,0,0,0.21
2013-5-30,46.1,44.0,41.5,43.8,41.4,38.5,94,91,84,29.72,29.48,17,4,0,0.22
2013-5-31,47.8,43.2,40.2,40.0,38.2,36.7,93,83,70,30.14,29.68,25,6,0,0.22
2013-6-1,56.3,48.7,41.5,42.9,38.8,33.3,92,70,52,30.21,30.05,19,0,0,0.12
2013-6-2,68.0,55.9,40.4,51.4,43.0,36.5,87,64,40,30.05,29.48,1,0,0,0.00
2013-6-3,60.5,51.7,40.4,49.7,40.4,26.4,93,68,27,29.89,29.44,14,1,0,0.00
2013-6-4,42.6,40.1,36.9,38.1,35.5,32.6,89,83,76,30.28,29.89,4,0,0,0.02
2013-6-5,56.2,45.8,32.3,43.0,37.9,30.8,96,75,56,30.27,30.05,1,0,0,0.00
2013-6-6,68.3,56.8,41.6,48.5,41.0,35.9,87,59,34,30.05,29.93,7,0,0,0.00
2013-6-7,73.8,61.0,47.7,52.6,45.6,40.3,83,60,34,29.93,29.52,6,0,0,0.00
2013-6-8,65.2,58.1,49.5,49.7,43.2,39.6,89,59,44,29.82,29.56,13,1,0,0.05
2013-6-9,77.1,62.2,45.1,51.0,42.5,36.7,83,52,27,29.84,29.55,2,0,0,0.00
2013-6-10,72.6,66.4,56.5,54.6,45.4,25.5,74,48,18,29.67,29.55,13,0,0,0.00
2013-6-11,70.8,60.9,50.6,60.1,52.3,45.8,90,74,53,29.85,29.54,18,1,0,0.10
2013-6-12,65.8,57.4,49.7,57.0,49.9,43.5,93,77,53,29.92,29.77,6,0,0,0.01
2013-6-13,77.1,61.3,50.0,62.8,54.4,48.3,95,79,55,29.86,29.58,8,0,0,0.00
2013-6-14,64.7,55.9,43.2,55.4,43.3,36.2,86,63,50,29.97,29.66,8,0,0,0.00
2013-6-15,69.5,55.9,39.3,46.0,37.1,27.0,77,52,29,30.01,29.87,2,0,0,0.00
2013-6-16,69.5,56.8,45.8,48.7,41.0,34.3,72,57,28,29.99,29.89,0,0,0,0.00
2013-6-17,70.3,61.0,47.9,55.0,48.7,42.5,83,65,48,29.97,29.88,1,0,0,0.00
2013-6-18,75.3,63.4,52.8,53.4,45.3,38.8,79,53,34,29.88,29.61,9,0,0,0.01
2013-6-19,79.4,64.2,50.6,53.6,39.5,15.9,68,46,11,29.61,29.30,11,0,0,0.00
2013-6-20,75.6,61.0,47.1,43.4,38.7,20.7,69,46,13,29.80,29.38,12,0,0,0.00
2013-6-21,63.4,56.8,49.0,49.3,43.5,37.2,83,61,50,29.87,29.76,1,0,0,0.00
2013-6-22,56.2,51.6,44.3,50.3,46.6,41.8,93,83,65,29.91,29.73,11,0,0,0.08
2013-6-23,67.5,55.7,40.5,50.4,43.3,37.7,93,66,44,29.91,29.65,2,0,0,0.00
2013-6-24,78.0,66.0,49.9,54.0,44.8,36.7,82,49,24,29.65,29.42,1,0,0,0.00
2013-6-25,72.8,64.3,56.6,52.7,47.2,40.2,72,55,38,29.70,29.39,16,0,0,0.00
2013-6-26,74.0,65.8,57.1,55.2,48.3,37.9,80,54,41,29.90,29.69,1,0,0,0.00
2013-6-27,80.1,67.5,52.5,55.8,51.1,45.0,84,59,29,30.03,29.91,0,0,0,0.00
2013-6-28,79.7,67.9,54.3,55.2,51.5,48.0,83,58,35,30.04,29.98,2,0,0,0.00
2013-6-29,79.4,68.2,54.4,57.8,51.8,46.6,79,58,39,30.00,29.88,0,0,0,0.00
2013-6-30,80.2,67.8,58.1,54.9,52.1,50.4,81,59,37,29.95,29.87,2,0,0,0.00
2013-7-2,63.5,62.0,61.0,47.0,46.0,45.1,58,56,54,29.82,29.80,0,0,0,0.00
2013-7-3,83.4,72.3,55.0,55.5,47.7,33.5,65,43,27,29.80,29.66,8,0,0,0.00
2013-7-4,79.5,68.6,57.6,60.9,53.5,41.6,94,61,38,29.75,29.57,0,0,0,0.01
2013-7-5,72.5,63.1,53.8,61.4,55.9,51.8,94,78,50,29.72,29.54,11,0,0,0.02
2013-7-6,73.8,64.4,53.6,59.8,53.1,47.1,84,68,50,29.79,29.62,1,0,0,0.00
2013-7-7,78.9,66.2,53.3,60.1,53.1,47.5,85,65,42,29.83,29.66,17,0,0,0.00
2013-7-8,83.3,68.8,57.1,58.1,51.6,46.9,75,56,31,29.81,29.69,1,0,0,0.00
2013-7-9,73.5,67.4,59.1,54.7,51.6,49.0,77,59,43,29.95,29.91,4,1,0,0.00
2013-7-10,83.3,67.5,53.3,58.2,51.0,45.9,82,59,30,29.93,29.83,4,1,0,0.00
2013-7-11,78.1,75.8,73.8,46.6,45.3,44.2,36,34,33,29.54,29.48,8,5,0,0.00
2013-7-12,73.8,67.2,56.9,55.4,51.2,45.4,86,58,39,29.71,29.52,8,1,0,0.01
2013-7-13,86.4,72.8,57.3,53.1,42.2,34.3,69,37,16,29.77,29.71,13,2,0,0.00
2013-7-14,75.2,68.7,52.7,55.1,50.7,47.1,83,54,38,29.98,29.87,9,2,0,0.00
2013-7-15,84.4,71.5,55.3,61.9,52.1,42.9,74,52,31,29.88,29.68,12,1,0,0.00
2013-7-16,72.6,63.9,56.3,54.4,51.9,44.0,85,66,42,30.02,29.71,20,4,0,0.00
2013-7-17,73.1,61.4,53.4,59.1,53.0,49.4,91,76,54,30.01,29.83,7,1,0,0.00
2013-7-18,80.8,73.1,64.3,59.1,52.2,48.2,66,49,36,29.87,29.78,13,3,0,0.00
2013-7-19,85.6,73.0,58.0,52.1,48.0,44.4,73,45,24,29.88,29.70,7,2,0,0.00
2013-7-20,80.8,71.0,58.4,50.5,47.0,43.5,63,44,29,29.72,29.61,5,1,0,0.00
2013-7-21,85.5,72.8,58.4,53.6,43.5,35.2,64,37,21,29.71,29.58,7,2,0,0.00
2013-7-22,89.5,72.1,53.9,51.1,43.6,38.3,64,39,20,29.71,29.59,9,2,0,0.00
2013-7-23,82.5,72.1,60.6,51.1,43.4,37.1,59,37,21,29.90,29.70,8,2,0,0.00
2013-7-24,82.3,71.4,55.3,54.4,47.1,43.7,69,44,27,29.91,29.70,7,1,0,0.00
2013-7-25,75.0,65.5,56.6,54.6,49.0,41.0,75,57,36,30.02,29.68,11,2,0,0.00
2013-7-26,76.4,63.5,48.3,54.4,50.0,45.2,92,64,39,30.05,29.92,4,1,0,0.00
2013-7-27,77.1,66.5,54.4,58.5,49.1,38.4,90,57,29,29.91,29.69,6,2,0,0.04
2013-7-28,74.7,65.3,57.7,55.5,46.0,38.8,72,51,34,29.71,29.60,10,1,0,0.02
2013-7-29,67.3,60.0,52.8,53.3,50.0,44.3,80,70,57,29.93,29.68,14,2,0,0.00
2013-7-30,72.5,61.6,53.3,54.1,49.9,44.8,90,67,45,30.09,29.87,13,3,0,0.08
2013-7-31,78.8,65.0,49.0,52.0,48.1,44.6,92,59,31,30.11,29.93,5,1,0,0.00
2013-8-1,81.1,68.1,59.4,56.9,49.0,43.3,77,52,30,29.95,29.59,9,2,0,0.06
2013-8-2,73.6,64.0,53.3,56.8,52.2,45.1,89,67,37,29.86,29.62,10,2,0,0.00
2013-8-3,77.2,66.0,51.5,59.0,55.3,48.5,90,70,48,29.93,29.75,12,2,0,0.00
2013-8-4,77.9,67.6,55.4,60.1,57.0,52.3,92,70,49,29.85,29.76,15,2,0,0.00
2013-8-5,83.7,70.1,57.1,56.9,50.1,42.9,88,53,28,29.84,29.63,9,2,0,0.00
2013-8-6,73.4,64.7,53.0,49.1,45.2,42.0,74,51,35,29.89,29.68,8,2,0,0.01
2013-8-7,80.1,67.3,52.3,50.3,45.7,42.1,70,48,30,29.90,29.72,9,1,0,0.00
2013-8-8,75.8,65.1,52.7,53.2,48.5,41.2,81,57,37,29.87,29.79,7,1,0,0.00
2013-8-9,72.4,62.1,55.5,54.5,51.0,46.5,87,68,43,29.97,29.86,10,1,0,0.03
2013-8-10,77.1,65.3,50.9,53.0,47.5,39.1,86,56,36,29.95,29.87,8,1,0,0.00
2013-8-11,80.1,69.0,55.1,47.8,41.5,37.3,56,38,22,29.92,29.81,10,2,0,0.00
2013-8-12,81.5,68.6,54.8,50.0,40.4,34.1,56,37,21,29.88,29.83,4,1,0,0.00
2013-8-13,76.7,65.5,53.0,53.1,45.2,34.4,77,50,29,29.95,29.87,18,3,0,0.00
2013-8-14,77.9,62.7,53.2,56.9,44.9,38.2,79,54,28,29.93,29.83,5,1,0,0.06
2013-8-15,82.5,68.0,52.6,50.7,42.7,38.6,68,43,22,29.93,29.85,4,1,0,0.00
2013-8-16,89.9,75.9,61.2,45.7,37.4,26.9,45,27,12,29.86,29.70,8,2,0,0.00
2013-8-17,88.3,75.9,65.1,47.1,36.3,23.2,46,25,13,29.73,29.66,13,3,0,0.00
2013-8-18,80.6,69.0,60.7,52.3,46.4,39.4,61,45,23,29.81,29.67,16,3,0,0.00
2013-8-19,86.5,72.8,60.6,50.0,44.3,40.9,55,38,22,29.81,29.67,9,1,0,0.00
2013-8-20,83.6,72.8,62.3,43.7,38.6,34.1,45,30,19,29.73,29.66,17,2,0,0.00
2013-8-21,76.2,69.7,61.5,45.9,42.2,38.8,54,38,29,29.89,29.68,13,4,0,0.00
2013-8-22,79.9,69.8,61.4,57.9,52.3,44.9,74,55,38,29.91,29.72,10,1,0,0.01
2013-8-23,83.9,70.4,60.4,65.2,51.8,45.6,85,53,30,29.72,29.54,8,1,0,0.00
2013-8-24,76.0,67.6,58.6,59.8,51.8,48.1,85,59,40,29.77,29.61,10,1,0,0.00
2013-8-25,83.4,70.6,59.3,55.1,47.1,41.4,69,45,24,29.84,29.73,4,1,0,0.00
2013-8-26,85.4,74.1,63.3,60.5,45.5,40.7,62,38,22,29.75,29.70,9,2,0,0.00
2013-8-27,83.4,73.5,63.6,55.3,47.1,44.3,72,40,27,29.79,29.71,6,1,0,0.00
2013-8-28,87.4,74.2,60.5,55.5,50.7,46.5,68,46,26,29.76,29.66,14,2,0,0.00
2013-8-29,84.8,74.4,66.9,51.1,46.8,43.7,55,39,25,29.88,29.75,17,3,0,0.00
2013-8-30,89.0,75.1,63.6,51.8,43.8,37.1,48,34,17,29.83,29.69,16,2,0,0.00
2013-8-31,74.0,68.8,62.0,47.2,41.9,38.0,52,38,29,29.88,29.69,15,4,0,0.00
2013-9-1,83.0,73.2,51.9,45.4,39.5,34.7,62,32,19,29.95,29.82,6,1,0,0.00
2013-9-2,88.5,73.3,61.3,58.2,42.9,32.1,79,36,18,29.83,29.65,9,2,0,0.00
2013-9-3,81.7,70.0,59.9,57.3,51.9,48.5,76,54,36,29.83,29.68,6,1,0,0.00
2013-9-4,86.6,75.2,63.6,53.7,50.9,48.0,61,44,31,29.88,29.79,7,2,0,0.00
2013-9-5,88.1,74.0,62.7,54.8,50.3,45.1,65,45,28,29.83,29.68,5,1,0,0.00
2013-9-6,83.4,73.4,63.7,60.1,52.8,46.2,78,50,31,29.80,29.71,12,2,0,0.00
2013-9-7,82.7,70.9,59.2,56.6,53.4,50.2,81,56,34,29.82,29.72,6,1,0,0.00
2013-9-8,70.2,64.3,56.1,60.4,57.0,51.2,92,78,65,29.76,29.67,5,1,0,0.00
2013-9-9,65.7,57.8,49.2,48.3,45.2,42.6,85,64,45,29.92,29.75,12,2,0,0.00
2013-9-10,70.3,59.5,49.9,49.6,45.1,42.6,79,61,39,30.01,29.91,5,1,0,0.00
2013-9-11,75.2,63.0,53.5,46.4,41.7,33.1,67,47,24,30.12,30.00,7,2,0,0.00
2013-9-12,71.8,61.6,50.8,53.7,46.1,42.0,75,58,37,30.12,29.95,11,2,0,0.00
2013-9-13,71.9,60.8,52.9,58.4,52.2,45.6,94,75,51,29.95,29.65,7,1,0,0.00
2013-9-14,63.0,56.4,50.8,55.5,52.7,48.2,96,88,68,29.97,29.67,9,3,0,0.00
2013-9-15,61.7,55.6,46.6,55.4,52.1,45.0,97,88,72,30.07,29.96,10,1,0,0.00
2013-9-16,74.4,59.7,45.6,54.6,48.6,42.5,96,70,41,29.96,29.72,4,0,0,0.00
2013-9-17,81.7,65.3,56.5,53.3,45.7,36.5,80,52,21,29.73,29.46,14,2,0,0.00
2013-9-18,68.6,56.0,42.6,52.0,42.6,29.9,88,63,25,29.82,29.42,15,3,0,0.00
2013-9-19,51.5,44.1,38.7,39.2,36.6,34.9,89,75,60,30.15,29.83,10,3,0,0.00
2013-9-20,66.6,51.4,37.0,42.1,34.6,25.7,88,56,29,30.14,29.78,6,1,0,0.00
2013-9-21,80.6,65.0,47.8,39.7,28.0,21.4,43,26,13,29.78,29.42,7,2,0,0.00
2013-9-22,69.0,59.7,51.3,47.2,38.4,26.8,70,46,26,29.42,29.33,11,1,0,0.00
2013-9-23,61.4,51.9,43.1,43.6,37.9,31.3,87,61,34,29.86,29.42,14,4,0,0.00
2013-9-24,71.1,55.5,41.0,37.8,31.9,27.0,73,45,20,29.92,29.56,8,1,0,0.00
2013-9-25,55.7,48.0,40.1,43.2,37.6,32.0,94,69,46,29.60,29.43,11,2,0,0.00
2013-9-26,42.1,37.8,32.3,39.6,35.6,30.7,95,92,85,30.00,29.59,9,2,0,0.00
2013-9-27,36.3,33.1,31.0,33.7,31.5,29.5,96,94,88,30.03,29.96,3,0,0,0.00
2013-9-28,58.3,45.1,30.5,37.0,31.9,28.5,93,62,35,30.02,29.86,9,2,0,0.00
2013-9-29,64.4,54.7,42.5,42.0,34.6,26.6,71,48,29,29.86,29.54,13,2,0,0.00
2013-9-30,72.0,50.4,38.2,42.3,37.1,34.2,91,64,27,29.80,29.45,18,2,0,0.00
2013-10-1,61.9,47.2,35.1,43.0,37.0,30.4,92,70,45,29.90,29.80,7,1,0,0.00
2013-10-2,49.9,43.6,38.2,34.9,31.6,27.7,72,62,54,29.98,29.84,17,5,0,0.00
2013-10-3,38.0,34.3,29.5,37.0,32.9,28.0,96,95,91,30.21,29.85,13,4,0,0.00
2013-10-4,29.3,26.6,24.9,27.9,25.0,23.7,95,93,84,30.47,30.20,24,10,0,0.00
2013-10-5,48.5,37.1,28.7,30.7,24.3,19.6,83,61,41,30.44,30.23,14,7,0,0.00
2013-10-6,60.0,47.7,36.7,36.5,30.5,24.1,79,53,32,30.23,30.02,14,2,0,0.00
2013-10-7,71.3,50.8,39.5,41.7,28.9,16.7,58,45,13,30.02,29.64,8,1,0,0.00
2013-10-8,54.3,48.7,39.3,33.4,28.3,21.0,70,46,34,29.70,29.62,7,1,0,0.00
2013-10-13,38.7,37.6,36.3,36.4,35.3,33.8,93,91,90,30.10,30.04,8,2,0,0.00
2013-10-14,36.2,30.1,27.6,34.1,28.5,26.4,95,94,90,30.45,30.03,20,10,0,0.00
2013-10-15,32.5,28.8,21.5,29.0,25.7,18.5,94,88,78,30.47,30.24,9,3,0,0.00
2013-10-16,47.3,33.6,20.9,31.1,22.7,17.0,93,68,33,30.25,30.12,14,3,0,0.00
2013-10-17,32.5,30.0,27.4,29.3,27.3,25.9,94,90,82,30.20,30.15,15,4,0,0.00
2013-10-18,44.0,33.5,27.2,28.4,25.5,21.2,94,74,40,30.27,30.05,16,6,0,0.00
2013-10-19,52.8,47.1,41.2,33.0,24.6,20.4,69,41,32,30.05,29.82,13,5,0,0.00
2013-10-20,41.0,36.7,34.1,34.9,31.4,28.4,91,81,69,30.10,29.86,16,6,0,0.00
2013-10-21,51.0,46.5,36.8,33.5,31.7,29.0,82,56,46,30.09,30.01,16,7,0,0.00
2013-10-22,54.9,47.0,37.7,38.4,33.4,29.3,80,60,47,30.05,29.98,15,4,0,0.00
2013-10-23,51.7,44.3,37.7,37.6,33.7,28.9,88,67,54,30.21,30.04,9,2,0,0.00
2013-10-24,52.5,40.4,31.4,38.7,33.6,28.8,92,78,55,30.25,30.16,3,0,0,0.00
2013-10-25,61.9,47.5,36.0,34.4,28.7,24.2,82,52,24,30.16,30.11,24,3,0,0.00
2013-10-26,61.2,50.5,34.8,35.0,27.5,19.1,73,43,27,30.21,29.97,7,1,0,0.00
2013-10-27,58.2,47.1,33.5,33.2,25.6,18.5,82,45,29,29.97,29.74,5,1,0,0.00
2013-10-28,33.5,27.3,22.8,30.1,25.5,21.1,94,93,83,30.17,29.94,10,2,0,0.00
2013-10-29,26.3,24.2,22.0,24.6,22.4,20.3,94,93,91,30.16,30.03,3,0,0,0.00
2013-10-30,42.3,32.9,23.5,34.0,29.0,22.0,96,86,65,29.97,29.87,9,1,0,0.00
2013-10-31,43.9,35.1,26.9,35.4,27.7,23.8,91,75,56,29.94,29.78,14,3,0,0.00
2013-11-1,41.9,36.2,29.3,30.3,24.2,21.0,89,63,44,30.18,29.95,14,5,0,0.00
2013-11-2,53.4,39.0,28.6,34.0,24.4,17.3,78,57,37,30.17,29.59,4,1,0,0.00
2013-11-3,46.7,32.8,25.2,30.6,23.7,16.8,91,70,30,29.92,29.56,17,5,17,0.00
2013-11-4,30.6,23.7,20.7,24.2,11.8,-99.9,92,75,56,30.18,29.92,5,-70,6,0.01
2013-11-5,30.8,21.6,13.4,19.5,14.4,9.8,88,74,52,30.27,30.18,8,1,9,0.07
2013-11-6,41.6,33.0,21.6,26.4,21.5,16.5,81,63,39,30.38,30.20,12,4,17,0.01
2013-11-7,46.3,36.3,26.5,30.3,25.4,19.9,78,65,40,30.38,29.74,9,1,12,0.00
2013-11-8,49.0,38.7,29.2,30.7,23.7,16.9,92,57,33,30.02,29.63,22,4,26,0.01
2013-11-9,38.6,33.2,27.6,25.3,23.3,18.9,84,67,47,30.24,30.03,6,1,7,0.00
2013-11-10,56.2,40.1,27.5,36.9,29.1,24.5,89,66,34,30.21,30.09,6,1,10,0.00
2013-11-11,31.1,27.6,24.5,29.8,26.1,22.8,95,94,90,30.64,30.18,8,0,9,0.00
2013-11-12,58.2,43.8,27.7,34.6,24.0,8.9,95,50,18,30.63,30.20,7,2,9,0.01
2013-11-13,61.2,49.2,37.9,32.8,27.4,21.2,73,44,23,30.19,29.91,15,4,24,0.00
2013-11-14,42.7,35.0,28.7,26.6,22.3,17.7,78,60,48,30.00,29.73,8,1,18,0.00
2013-11-15,44.6,32.7,25.8,25.0,19.7,15.1,80,60,34,29.73,29.40,7,1,8,0.00
2013-11-16,41.8,32.3,25.4,26.2,20.9,12.7,92,64,31,29.49,29.26,16,2,23,0.00
2013-11-17,36.4,29.0,23.2,23.9,12.8,5.4,92,53,28,30.09,29.49,17,4,30,0.00
2013-11-18,53.7,37.1,23.2,25.2,17.9,11.4,67,48,21,30.08,29.83,6,1,8,0.00
2013-11-19,54.2,44.6,36.6,31.6,22.9,13.9,61,43,23,29.81,29.55,9,1,13,0.00
2013-11-20,45.6,21.2,5.1,24.5,13.5,1.1,89,74,38,30.40,29.61,29,6,35,0.00
2013-11-21,16.0,9.7,4.7,9.4,4.6,1.2,87,79,67,30.81,30.41,3,0,10,0.00
2013-11-22,30.8,20.5,11.3,7.0,3.1,-7.0,69,49,19,30.83,30.72,9,1,16,0.00
2013-11-23,42.5,28.7,16.4,19.4,10.2,3.0,66,47,25,30.77,30.30,5,1,7,0.00
2013-11-24,52.1,39.4,29.7,18.5,7.8,-10.4,44,29,7,30.30,30.02,15,4,20,0.00
2013-11-25,38.6,32.6,25.8,22.4,19.0,16.7,71,57,43,30.37,30.11,12,4,15,0.00
2013-11-26,43.3,33.3,24.9,25.4,20.1,14.9,74,59,44,30.43,30.16,8,1,12,0.00
2013-11-27,50.8,38.4,24.8,24.2,19.6,14.5,80,49,24,30.15,30.05,9,2,19,0.00
2013-11-28,45.4,34.0,23.8,27.2,21.2,18.2,81,61,44,30.17,30.08,6,1,6,0.00
2013-11-29,52.7,40.0,34.1,22.8,19.1,16.4,55,44,26,30.10,30.03,4,1,6,0.00
2013-11-30,45.3,36.7,30.6,26.7,22.7,19.2,72,57,43,30.16,30.07,12,1,18,0.00
2013-12-1,46.5,40.5,32.0,26.9,24.8,22.9,70,54,41,30.09,29.67,13,2,17,0.00
2013-12-2,44.6,34.2,18.6,31.7,28.1,16.4,94,80,49,29.66,29.43,24,3,26,0.00
2013-12-3,18.4,5.8,-0.8,16.2,2.8,-4.4,91,87,84,30.28,29.60,25,11,33,0.00
2013-12-4,-0.7,-5.0,-12.6,-4.3,-8.9,-17.0,84,83,80,30.56,30.27,25,8,27,0.00
2013-12-5,-0.1,-9.6,-14.6,-4.0,-13.9,-19.2,84,81,79,30.71,30.55,4,0,5,0.00
2013-12-6,-8.8,-15.2,-20.7,-13.3,-19.8,-25.6,82,79,77,30.88,30.69,4,0,6,0.00
2013-12-7,-10.3,-16.6,-23.3,-14.5,-21.3,-28.4,81,78,76,30.86,30.48,7,0,7,0.00
2013-12-8,4.3,-1.2,-15.1,-0.4,-5.9,-19.7,84,80,71,30.48,30.38,20,5,24,0.00
2013-12-9,24.3,10.0,-7.7,14.7,4.1,-11.9,83,77,62,30.45,30.21,18,2,19,0.00
2013-12-10,26.2,18.2,4.0,17.9,9.8,0.5,89,71,51,30.45,30.03,14,5,28,0.00
2013-12-11,26.2,14.9,4.2,22.2,11.6,0.7,90,86,72,30.50,30.41,2,0,3,0.05
2013-12-12,44.8,31.1,21.0,35.0,23.8,18.1,90,76,35,30.41,29.97,3,0,5,0.07
2013-12-13,35.4,30.9,27.5,26.3,20.9,16.0,91,67,45,30.22,29.94,18,5,18,0.00
2013-12-14,43.1,35.3,23.2,22.3,19.9,16.8,79,55,40,30.25,30.07,23,3,27,0.01
2013-12-15,53.8,48.4,41.5,22.0,14.8,7.6,43,26,16,30.07,29.86,17,6,23,0.00
2013-12-16,47.4,41.4,33.2,21.3,16.6,11.9,57,38,25,30.17,29.87,12,4,20,0.00
2013-12-17,57.6,42.9,24.5,21.8,15.9,5.4,80,43,12,30.21,29.74,16,4,20,0.00
2013-12-18,55.5,41.1,25.4,24.6,19.8,14.4,80,46,20,29.73,29.58,10,2,17,0.00
2013-12-19,25.3,8.5,0.0,20.0,4.7,-4.2,92,84,75,30.20,29.64,18,4,24,0.00
2013-12-20,25.8,15.4,5.8,14.3,7.1,2.5,89,71,43,30.19,29.74,4,0,4,0.00
2013-12-21,25.8,21.8,16.2,19.3,15.9,7.7,91,78,59,30.18,29.71,11,2,15,0.00
2013-12-22,16.9,11.4,4.2,13.4,8.0,0.7,90,86,79,30.49,30.09,11,1,15,0.00
2013-12-23,45.6,26.5,3.4,29.9,19.4,0.0,91,76,41,30.49,29.99,11,1,20,0.09
2013-12-24,47.5,29.4,20.7,28.3,20.1,12.3,94,70,31,30.33,29.87,24,7,31,0.00
2013-12-25,46.4,30.1,19.3,20.6,11.5,0.8,70,48,15,30.43,30.14,14,3,23,0.00
2013-12-26,49.4,42.2,30.5,27.0,21.6,13.6,71,45,28,30.23,30.02,14,3,24,0.00
2013-12-27,57.6,43.1,35.3,28.0,22.8,8.3,67,47,16,30.12,29.81,7,1,8,0.00
2013-12-28,53.8,21.7,0.8,24.6,8.0,-3.0,90,66,16,30.41,29.74,19,6,29,0.00
2013-12-29,34.3,21.0,5.9,21.6,15.1,2.9,90,79,54,30.45,30.11,15,2,22,0.00
2013-12-30,41.3,29.8,21.4,25.6,21.3,16.1,89,71,38,30.27,29.97,19,4,23,0.00
2013-12-31,44.7,38.3,26.5,29.7,23.2,18.2,94,58,37,30.00,29.84,17,5,21,0.00
2014-1-1,26.3,23.2,17.5,24.6,21.2,15.3,94,92,86,30.37,29.99,14,3,19,0.00
2014-1-2,43.2,25.8,16.0,32.8,23.3,13.7,95,90,53,30.36,29.93,9,0,14,0.01